createdAt,value
2019-03-25T00:00:11.546Z,47.98
2019-03-25T00:02:39.996Z,46.40
2019-03-25T00:05:08.428Z,48.00
2019-03-25T00:07:36.898Z,47.75
2019-03-25T00:10:07.061Z,49.88
2019-03-25T00:12:35.801Z,50.80
2019-03-25T00:15:10.301Z,47.80
2019-03-25T00:17:38.745Z,43.95
2019-03-25T00:20:08.020Z,43.98
2019-03-25T00:22:36.462Z,44.48
2019-03-25T00:25:06.646Z,44.70
2019-03-25T00:27:35.351Z,44.40
2019-03-25T00:30:04.678Z,46.02
2019-03-25T00:33:06.761Z,48.17
2019-03-25T00:35:35.216Z,47.62
2019-03-25T00:38:06.819Z,47.75
2019-03-25T00:40:35.268Z,47.17
2019-03-25T00:43:03.966Z,47.48
2019-03-25T00:45:32.458Z,47.48
2019-03-25T00:48:01.167Z,47.67
2019-03-25T00:50:29.892Z,46.98
2019-03-25T00:52:58.349Z,43.58
2019-03-25T00:55:27.806Z,37.90
2019-03-25T00:57:56.498Z,42.23
2019-03-25T01:00:25.204Z,43.17
2019-03-25T01:02:53.654Z,41.35
2019-03-25T01:05:22.121Z,42.70
2019-03-25T01:07:50.603Z,43.98
2019-03-25T01:10:19.088Z,47.93
2019-03-25T01:13:02.525Z,50.25
2019-03-25T01:15:30.971Z,51.60
2019-03-25T01:17:59.681Z,44.30
2019-03-25T01:20:28.188Z,45.50
2019-03-25T01:22:59.800Z,46.90
2019-03-25T01:25:28.518Z,47.58
2019-03-25T01:27:56.948Z,48.25
2019-03-25T01:30:25.663Z,49.13
2019-03-25T01:32:54.110Z,49.38
2019-03-25T01:35:22.815Z,53.10
2019-03-25T01:37:51.265Z,52.53
2019-03-25T01:40:20.945Z,47.50
2019-03-25T01:42:49.384Z,49.90
2019-03-25T01:45:18.119Z,50.55
2019-03-25T01:47:46.894Z,51.30
2019-03-25T01:50:15.351Z,53.68
2019-03-25T01:52:44.063Z,53.38
2019-03-25T01:55:15.588Z,52.45
2019-03-25T01:57:59.037Z,51.98
2019-03-25T02:00:27.859Z,54.48
2019-03-25T02:02:56.320Z,50.88
2019-03-25T02:05:24.806Z,51.00
2019-03-25T02:07:53.519Z,50.88
2019-03-25T02:10:21.979Z,49.90
2019-03-25T02:12:50.495Z,49.27
2019-03-25T02:15:18.932Z,51.10
2019-03-25T02:17:47.402Z,52.25
2019-03-25T02:20:25.828Z,52.00
2019-03-25T02:22:46.153Z,51.35
2019-03-25T02:25:24.952Z,52.40
2019-03-25T02:27:45.022Z,51.68
2019-03-25T02:30:13.606Z,52.27
2019-03-25T02:32:42.062Z,49.75
2019-03-25T02:35:10.893Z,49.60
2019-03-25T02:37:39.354Z,49.13
2019-03-25T02:40:07.948Z,47.50
2019-03-25T02:42:36.665Z,47.00
2019-03-25T02:45:07.150Z,46.45
2019-03-25T02:47:35.615Z,44.93
2019-03-25T02:50:05.491Z,46.30
2019-03-25T02:52:33.945Z,44.67
2019-03-25T02:55:06.680Z,47.40
2019-03-25T02:57:35.136Z,44.27
2019-03-25T03:00:04.311Z,46.20
2019-03-25T03:02:32.774Z,45.28
2019-03-25T03:05:01.218Z,43.40
2019-03-25T03:07:29.661Z,45.30
2019-03-25T03:09:58.114Z,44.48
2019-03-25T03:12:26.626Z,45.75
2019-03-25T03:14:55.083Z,44.90
2019-03-25T03:17:23.790Z,43.98
2019-03-25T03:19:55.028Z,44.95
2019-03-25T03:22:22.691Z,45.03
2019-03-25T03:24:57.456Z,46.08
2019-03-25T03:29:56.870Z,42.93
2019-03-25T03:32:25.577Z,44.60
2019-03-25T03:34:54.401Z,43.55
2019-03-25T03:37:22.860Z,42.67
2019-03-25T03:39:54.491Z,43.55
2019-03-25T03:42:23.210Z,43.83
2019-03-25T03:44:51.922Z,44.67
2019-03-25T03:47:20.529Z,45.50
2019-03-25T03:49:48.995Z,43.52
2019-03-25T03:52:17.507Z,48.02
2019-03-25T03:54:45.956Z,46.20
2019-03-25T03:57:14.403Z,45.23
2019-03-25T03:59:43.913Z,44.30
2019-03-25T04:02:12.943Z,44.00
2019-03-25T04:04:41.670Z,41.95
2019-03-25T04:07:10.396Z,41.30
2019-03-25T04:09:39.166Z,41.90
2019-03-25T04:12:07.885Z,41.35
2019-03-25T04:14:36.658Z,40.52
2019-03-25T04:17:05.364Z,40.17
2019-03-25T04:19:33.814Z,40.33
2019-03-25T04:22:02.534Z,40.43
2019-03-25T04:24:31.228Z,38.05
2019-03-25T04:26:59.965Z,38.60
2019-03-25T04:29:28.667Z,39.23
2019-03-25T04:31:57.392Z,38.67
2019-03-25T04:34:25.841Z,41.40
2019-03-25T04:36:54.550Z,39.85
2019-03-25T04:39:22.993Z,41.85
2019-03-25T04:41:51.533Z,40.12
2019-03-25T04:44:19.977Z,40.00
2019-03-25T04:46:48.661Z,38.25
2019-03-25T04:49:17.201Z,35.52
2019-03-25T04:51:48.578Z,34.43
2019-03-25T04:54:17.302Z,36.95
2019-03-25T04:56:45.749Z,38.05
2019-03-25T04:59:14.209Z,38.13
2019-03-25T05:01:42.685Z,36.95
2019-03-25T05:04:11.407Z,40.17
2019-03-25T05:06:40.092Z,39.33
2019-03-25T05:09:08.813Z,40.65
2019-03-25T05:11:37.244Z,37.95
2019-03-25T05:14:06.792Z,37.33
2019-03-25T05:16:47.414Z,34.00
2019-03-25T05:19:16.527Z,35.60
2019-03-25T05:21:44.964Z,29.02
2019-03-25T05:24:13.406Z,29.65
2019-03-25T05:26:50.541Z,25.80
2019-03-25T05:29:12.552Z,24.32
2019-03-25T05:31:41.323Z,24.60
2019-03-25T05:34:10.024Z,24.05
2019-03-25T05:36:38.753Z,23.95
2019-03-25T05:39:10.763Z,24.40
2019-03-25T05:41:54.641Z,24.95
2019-03-25T05:44:23.083Z,24.70
2019-03-25T05:46:51.616Z,25.77
2019-03-25T05:49:20.054Z,25.40
2019-03-25T05:51:48.878Z,25.50
2019-03-25T05:54:17.580Z,25.88
2019-03-25T05:56:46.033Z,24.63
2019-03-25T05:59:14.717Z,25.10
2019-03-25T06:01:44.301Z,24.82
2019-03-25T06:04:13.340Z,25.20
2019-03-25T06:06:41.796Z,25.43
2019-03-25T06:09:11.825Z,24.70
2019-03-25T06:12:07.764Z,25.60
2019-03-25T06:14:36.196Z,24.57
2019-03-25T06:17:04.653Z,22.62
2019-03-25T06:19:33.088Z,21.73
2019-03-25T06:22:01.819Z,21.68
2019-03-25T06:24:30.247Z,20.45
2019-03-25T06:26:58.969Z,18.80
2019-03-25T06:29:27.413Z,16.15
2019-03-25T06:31:55.852Z,14.73
2019-03-25T06:34:24.304Z,13.58
2019-03-25T06:36:52.741Z,13.80
2019-03-25T06:39:21.216Z,12.88
2019-03-25T06:41:49.906Z,13.00
2019-03-25T06:44:18.398Z,12.80
2019-03-25T06:47:07.905Z,12.68
2019-03-25T06:49:36.700Z,13.00
2019-03-25T06:52:05.473Z,14.80
2019-03-25T06:54:33.936Z,14.33
2019-03-25T06:57:02.630Z,13.53
2019-03-25T06:59:31.085Z,12.82
2019-03-25T07:01:59.786Z,11.40
2019-03-25T07:04:33.988Z,11.55
2019-03-25T07:07:02.465Z,10.90
2019-03-25T07:09:30.903Z,9.45
2019-03-25T07:11:59.821Z,8.50
2019-03-25T07:14:29.948Z,9.28
2019-03-25T07:16:58.384Z,9.45
2019-03-25T07:19:26.823Z,9.38
2019-03-25T07:21:55.546Z,10.55
2019-03-25T07:24:26.944Z,10.53
2019-03-25T07:26:55.620Z,11.15
2019-03-25T07:29:24.227Z,11.83
2019-03-25T07:31:52.689Z,13.22
2019-03-25T07:34:21.484Z,13.03
2019-03-25T07:36:49.950Z,12.70
2019-03-25T07:39:21.328Z,12.20
2019-03-25T07:41:50.041Z,11.75
2019-03-25T07:44:18.488Z,11.38
2019-03-25T07:46:46.969Z,11.25
2019-03-25T07:49:15.677Z,12.00
2019-03-25T07:51:44.136Z,12.60
2019-03-25T07:54:12.580Z,13.28
2019-03-25T07:56:41.293Z,12.55
2019-03-25T07:59:09.953Z,11.63
2019-03-25T08:01:38.497Z,12.07
2019-03-25T08:04:07.307Z,12.50
2019-03-25T08:06:36.004Z,12.18
2019-03-25T08:09:06.414Z,10.82
2019-03-25T08:11:34.859Z,12.03
2019-03-25T08:14:03.307Z,12.63
2019-03-25T08:16:31.761Z,11.80
2019-03-25T08:19:00.509Z,11.75
2019-03-25T08:21:29.222Z,13.20
2019-03-25T08:23:57.705Z,11.30
2019-03-25T08:26:26.139Z,11.28
2019-03-25T08:28:54.601Z,11.20
2019-03-25T08:31:23.296Z,10.88
2019-03-25T08:33:51.832Z,10.55
2019-03-25T08:36:20.534Z,11.05
2019-03-25T08:38:48.995Z,11.00
2019-03-25T08:41:17.504Z,10.40
2019-03-25T08:43:45.957Z,10.50
2019-03-25T08:46:14.666Z,10.50
2019-03-25T08:48:43.392Z,9.80
2019-03-25T08:51:11.832Z,11.22
2019-03-25T08:53:40.298Z,11.38
2019-03-25T08:56:09.162Z,11.28
2019-03-25T08:58:37.623Z,11.15
2019-03-25T09:01:06.383Z,11.48
2019-03-25T09:03:34.869Z,10.82
2019-03-25T09:06:03.560Z,10.48
2019-03-25T09:08:32.281Z,9.73
2019-03-25T09:11:00.999Z,9.48
2019-03-25T09:13:35.588Z,8.38
2019-03-25T09:16:04.374Z,9.58
2019-03-25T09:18:33.146Z,8.50
2019-03-25T09:21:01.861Z,8.48
2019-03-25T09:23:30.332Z,7.47
2019-03-25T09:25:58.795Z,7.55
2019-03-25T09:28:27.298Z,7.12
2019-03-25T09:30:59.081Z,7.72
2019-03-25T09:33:27.523Z,7.50
2019-03-25T09:35:55.980Z,6.87
2019-03-25T09:38:24.605Z,6.83
2019-03-25T09:40:53.049Z,5.78
2019-03-25T09:43:26.212Z,5.80
2019-03-25T09:45:54.721Z,5.62
2019-03-25T09:48:23.183Z,5.92
2019-03-25T09:50:51.617Z,5.78
2019-03-25T09:53:20.325Z,5.50
2019-03-25T09:55:48.766Z,4.58
2019-03-25T09:58:17.221Z,4.83
2019-03-25T10:00:52.119Z,6.33
2019-03-25T10:03:20.847Z,5.70
2019-03-25T10:05:49.558Z,5.05
2019-03-25T10:08:18.335Z,4.47
2019-03-25T10:10:47.030Z,4.28
2019-03-25T10:13:15.757Z,4.62
2019-03-25T10:15:44.198Z,4.25
2019-03-25T10:18:12.655Z,3.40
2019-03-25T10:20:41.101Z,3.60
2019-03-25T10:23:09.802Z,3.17
2019-03-25T10:25:38.242Z,3.30
2019-03-25T10:28:06.701Z,3.58
2019-03-25T10:30:35.487Z,3.98
2019-03-25T10:33:04.003Z,3.55
2019-03-25T10:35:32.702Z,2.92
2019-03-25T10:38:18.876Z,2.58
2019-03-25T10:40:37.310Z,3.10
2019-03-25T10:43:05.890Z,3.17
2019-03-25T10:45:34.346Z,3.40
2019-03-25T10:48:02.873Z,9.33
2019-03-25T10:50:31.303Z,3.70
2019-03-25T10:53:00.049Z,6.53
2019-03-25T10:55:28.493Z,3.60
2019-03-25T10:57:56.928Z,3.58
2019-03-25T11:00:25.381Z,4.87
2019-03-25T11:02:53.820Z,3.60
2019-03-25T11:05:22.273Z,3.20
2019-03-25T11:07:50.985Z,3.35
2019-03-25T11:10:19.508Z,3.67
2019-03-25T11:12:48.285Z,2.90
2019-03-25T11:15:17.329Z,3.17
2019-03-25T11:17:46.029Z,3.00
2019-03-25T11:20:16.481Z,3.75
2019-03-25T11:22:44.991Z,3.33
2019-03-25T11:25:38.414Z,3.02
2019-03-25T11:27:54.023Z,3.67
2019-03-25T11:30:18.185Z,4.33
2019-03-25T11:32:46.613Z,3.72
2019-03-25T11:35:15.903Z,3.83
2019-03-25T11:37:44.594Z,3.47
2019-03-25T11:40:13.684Z,3.85
2019-03-25T11:42:42.113Z,3.80
2019-03-25T11:45:11.861Z,4.95
2019-03-25T11:47:40.295Z,3.72
2019-03-25T11:50:10.141Z,3.77
2019-03-25T11:52:38.578Z,4.78
2019-03-25T11:55:08.050Z,3.25
2019-03-25T11:57:36.481Z,3.62
2019-03-25T12:00:07.603Z,3.85
2019-03-25T12:02:57.925Z,4.65
2019-03-25T12:05:26.374Z,3.12
2019-03-25T12:07:54.804Z,3.10
2019-03-25T12:10:24.547Z,2.80
2019-03-25T12:12:53.034Z,2.80
2019-03-25T12:15:21.465Z,2.77
2019-03-25T12:17:49.918Z,2.77
2019-03-25T12:20:18.738Z,3.20
2019-03-25T12:22:47.187Z,3.40
2019-03-25T12:25:15.622Z,3.10
2019-03-25T12:27:44.082Z,3.58
2019-03-25T12:30:13.130Z,2.90
2019-03-25T12:32:41.600Z,3.25
2019-03-25T12:35:10.263Z,3.22
2019-03-25T12:37:41.749Z,3.33
2019-03-25T12:40:10.696Z,3.10
2019-03-25T12:42:39.129Z,3.12
2019-03-25T12:45:08.825Z,2.62
2019-03-25T12:47:37.529Z,2.98
2019-03-25T12:50:08.697Z,3.10
2019-03-25T12:52:37.135Z,3.40
2019-03-25T12:55:06.525Z,3.20
2019-03-25T12:57:34.967Z,3.08
2019-03-25T13:00:05.419Z,2.90
2019-03-25T13:02:38.362Z,3.30
2019-03-25T13:05:07.817Z,2.90
2019-03-25T13:07:36.332Z,2.90
2019-03-25T13:10:06.832Z,4.72
2019-03-25T13:12:35.536Z,2.90
2019-03-25T13:15:06.001Z,2.80
2019-03-25T13:17:34.714Z,3.40
2019-03-25T13:20:04.316Z,3.08
2019-03-25T13:22:32.752Z,3.50
2019-03-25T13:25:01.181Z,3.22
2019-03-25T13:27:29.640Z,3.42
2019-03-25T13:29:58.324Z,3.67
2019-03-25T13:32:26.784Z,3.58
2019-03-25T13:34:55.224Z,3.12
2019-03-25T13:37:23.940Z,3.62
2019-03-25T13:39:52.381Z,4.08
2019-03-25T13:42:23.559Z,3.77
2019-03-25T13:44:54.885Z,3.00
2019-03-25T13:47:22.484Z,2.40
2019-03-25T13:49:50.928Z,2.58
2019-03-25T13:52:19.430Z,2.52
2019-03-25T13:54:47.892Z,2.80
2019-03-25T13:57:16.334Z,3.40
2019-03-25T13:59:44.858Z,3.62
2019-03-25T14:02:24.368Z,3.30
2019-03-25T14:04:53.042Z,3.40
2019-03-25T14:07:21.482Z,3.70
2019-03-25T14:09:49.929Z,3.20
2019-03-25T14:12:18.363Z,3.15
2019-03-25T14:14:51.192Z,3.05
2019-03-25T14:17:19.633Z,2.98
2019-03-25T14:19:50.792Z,2.85
2019-03-25T14:22:19.230Z,2.65
2019-03-25T14:24:47.686Z,3.15
2019-03-25T14:27:16.116Z,2.83
2019-03-25T14:29:45.428Z,3.33
2019-03-25T14:32:14.432Z,3.25
2019-03-25T14:34:52.170Z,3.45
2019-03-25T14:37:20.900Z,3.25
2019-03-25T14:39:49.613Z,3.27
2019-03-25T14:42:18.303Z,3.25
2019-03-25T14:44:46.759Z,3.35
2019-03-25T14:47:15.205Z,3.08
2019-03-25T14:49:43.641Z,2.90
2019-03-25T14:52:12.365Z,2.95
2019-03-25T14:54:40.795Z,2.83
2019-03-25T14:57:09.255Z,2.60
2019-03-25T14:59:37.686Z,2.92
2019-03-25T15:02:06.241Z,2.95
2019-03-25T15:04:34.940Z,3.83
2019-03-25T15:07:03.388Z,2.67
2019-03-25T15:09:37.842Z,4.00
2019-03-25T15:12:06.306Z,3.08
2019-03-25T15:14:34.731Z,2.92
2019-03-25T15:17:03.189Z,3.08
2019-03-25T15:19:31.890Z,3.15
2019-03-25T15:22:00.413Z,2.90
2019-03-25T15:24:29.096Z,3.00
2019-03-25T15:26:57.818Z,3.02
2019-03-25T15:29:26.330Z,3.40
2019-03-25T15:31:54.780Z,2.92
2019-03-25T15:34:23.215Z,2.90
2019-03-25T15:36:51.938Z,3.27
2019-03-25T15:39:20.449Z,3.30
2019-03-25T15:41:48.911Z,3.77
2019-03-25T15:44:17.340Z,3.15
2019-03-25T15:46:55.394Z,3.52
2019-03-25T15:49:16.636Z,3.33
2019-03-25T15:51:45.165Z,3.30
2019-03-25T15:54:13.863Z,3.50
2019-03-25T15:56:42.575Z,3.45
2019-03-25T15:59:11.080Z,2.95
2019-03-25T16:01:39.597Z,2.45
2019-03-25T16:04:08.383Z,2.70
2019-03-25T16:06:36.817Z,1.72
2019-03-25T16:09:07.703Z,2.08
2019-03-25T16:11:57.483Z,2.35
2019-03-25T16:14:25.941Z,1.90
2019-03-25T16:16:54.374Z,1.55
2019-03-25T16:19:22.835Z,1.67
2019-03-25T16:21:51.266Z,1.85
2019-03-25T16:24:19.709Z,1.52
2019-03-25T16:26:48.147Z,1.60
2019-03-25T16:29:18.089Z,1.72
2019-03-25T16:31:46.952Z,1.42
2019-03-25T16:34:15.406Z,1.35
2019-03-25T16:36:43.836Z,2.10
2019-03-25T16:39:12.293Z,1.50
2019-03-25T16:41:40.993Z,1.80
2019-03-25T16:44:09.443Z,2.20
2019-03-25T16:46:37.879Z,3.17
2019-03-25T16:49:07.814Z,2.10
2019-03-25T16:51:36.564Z,5.75
2019-03-25T16:54:05.014Z,3.35
2019-03-25T16:56:33.447Z,24.35
2019-03-25T16:59:01.903Z,8.78
2019-03-25T17:01:33.294Z,4.53
2019-03-25T17:04:02.021Z,2.40
2019-03-25T17:06:30.456Z,2.40
2019-03-25T17:08:59.167Z,3.27
2019-03-25T17:11:27.620Z,4.72
2019-03-25T17:13:56.324Z,2.60
2019-03-25T17:16:24.790Z,4.85
2019-03-25T17:18:53.489Z,4.42
2019-03-25T17:21:22.011Z,4.35
2019-03-25T17:23:50.692Z,3.22
2019-03-25T17:26:19.419Z,2.72
2019-03-25T17:28:47.856Z,2.75
2019-03-25T17:31:20.877Z,3.62
2019-03-25T17:33:46.728Z,4.10
2019-03-25T17:36:15.182Z,3.60
2019-03-25T17:38:43.878Z,3.60
2019-03-25T17:41:14.036Z,4.50
2019-03-25T17:43:42.812Z,5.17
2019-03-25T17:46:11.267Z,4.87
2019-03-25T17:48:39.710Z,4.62
2019-03-25T17:51:08.169Z,4.90
2019-03-25T17:53:36.851Z,5.20
2019-03-25T17:56:05.390Z,3.27
2019-03-25T17:58:33.819Z,2.92
2019-03-25T18:01:05.342Z,2.45
2019-03-25T18:03:34.030Z,2.25
2019-03-25T18:06:02.467Z,2.25
2019-03-25T18:08:30.915Z,2.08
2019-03-25T18:10:59.381Z,2.27
2019-03-25T18:13:28.146Z,2.45
2019-03-25T18:15:56.611Z,2.30
2019-03-25T18:18:25.106Z,2.27
2019-03-25T18:20:54.800Z,1.10
2019-03-25T18:23:23.647Z,1.47
2019-03-25T18:25:52.113Z,1.20
2019-03-25T18:28:20.831Z,1.30
2019-03-25T18:30:49.319Z,1.57
2019-03-25T18:33:18.682Z,1.35
2019-03-25T18:35:47.194Z,1.55
2019-03-25T18:38:15.653Z,1.57
2019-03-25T18:40:44.082Z,1.72
2019-03-25T18:43:12.807Z,1.70
2019-03-25T18:45:44.483Z,1.40
2019-03-25T18:48:19.024Z,1.47
2019-03-25T18:50:47.457Z,2.83
2019-03-25T18:53:15.908Z,2.02
2019-03-25T18:55:44.356Z,1.60
2019-03-25T18:58:12.873Z,4.30
2019-03-25T19:00:41.309Z,5.20
2019-03-25T19:03:09.772Z,4.25
2019-03-25T19:05:38.470Z,2.77
2019-03-25T19:08:07.448Z,6.47
2019-03-25T19:10:36.148Z,18.10
2019-03-25T19:13:04.613Z,12.47
2019-03-25T19:15:33.141Z,10.93
2019-03-25T19:18:01.914Z,4.55
2019-03-25T19:20:30.380Z,7.75
2019-03-25T19:22:58.884Z,4.45
2019-03-25T19:25:27.350Z,4.60
2019-03-25T19:27:56.692Z,4.47
2019-03-25T19:30:25.173Z,4.03
2019-03-25T19:32:53.690Z,4.12
2019-03-25T19:35:22.127Z,3.27
2019-03-25T19:37:50.582Z,3.35
2019-03-25T19:40:19.256Z,4.17
2019-03-25T19:42:47.710Z,3.40
2019-03-25T19:45:16.390Z,5.05
2019-03-25T19:47:45.117Z,7.00
2019-03-25T19:50:14.320Z,5.70
2019-03-25T19:52:42.797Z,13.10
2019-03-25T19:55:11.874Z,6.20
2019-03-25T19:57:40.397Z,4.60
2019-03-25T20:00:09.941Z,4.30
2019-03-25T20:02:38.496Z,5.70
2019-03-25T20:05:10.021Z,4.40
2019-03-25T20:07:41.588Z,5.05
2019-03-25T20:10:13.143Z,5.58
2019-03-25T20:12:41.643Z,7.67
2019-03-25T20:15:10.449Z,9.93
2019-03-25T20:17:38.950Z,5.60
2019-03-25T20:20:08.463Z,6.47
2019-03-25T20:22:36.917Z,7.17
2019-03-25T20:25:06.811Z,5.00
2019-03-25T20:27:35.304Z,5.60
2019-03-25T20:30:07.237Z,5.45
2019-03-25T20:32:35.749Z,5.17
2019-03-25T20:35:05.919Z,4.37
2019-03-25T20:37:34.607Z,3.33
2019-03-25T20:40:03.789Z,4.10
2019-03-25T20:42:32.231Z,4.15
2019-03-25T20:45:00.789Z,4.00
2019-03-25T20:47:29.556Z,4.85
2019-03-25T20:49:58.099Z,4.50
2019-03-25T20:52:26.905Z,4.17
2019-03-25T20:54:55.617Z,4.78
2019-03-25T20:57:24.326Z,6.78
2019-03-25T20:59:52.815Z,12.65
2019-03-25T21:02:21.321Z,19.05
2019-03-25T21:04:50.113Z,15.58
2019-03-25T21:07:18.845Z,4.90
2019-03-25T21:09:47.610Z,5.20
2019-03-25T21:12:16.084Z,12.37
2019-03-25T21:14:44.876Z,7.30
2019-03-25T21:17:13.409Z,5.60
2019-03-25T21:19:42.176Z,4.83
2019-03-25T21:22:10.966Z,6.95
2019-03-25T21:24:39.685Z,22.75
2019-03-25T21:27:08.153Z,21.00
2019-03-25T21:29:36.625Z,13.40
2019-03-25T21:32:05.167Z,4.28
2019-03-25T21:34:33.893Z,4.37
2019-03-25T21:37:05.602Z,3.70
2019-03-25T21:39:32.790Z,4.42
2019-03-25T21:42:01.376Z,4.65
2019-03-25T21:44:30.162Z,4.97
2019-03-25T21:46:58.613Z,4.80
2019-03-25T21:49:27.310Z,4.62
2019-03-25T21:51:55.772Z,4.75
2019-03-25T21:54:27.319Z,4.17
2019-03-25T21:56:55.923Z,4.55
2019-03-25T21:59:25.338Z,4.20
2019-03-25T22:01:54.079Z,4.70
2019-03-25T22:04:22.841Z,4.00
2019-03-25T22:06:51.299Z,4.60
2019-03-25T22:09:19.742Z,4.67
2019-03-25T22:11:48.452Z,5.22
2019-03-25T22:14:18.150Z,4.45
2019-03-25T22:16:46.597Z,4.67
2019-03-25T22:19:15.046Z,5.00
2019-03-25T22:21:43.501Z,4.00
2019-03-25T22:24:11.964Z,3.92
2019-03-25T22:26:40.673Z,3.87
2019-03-25T22:29:14.826Z,4.05
2019-03-25T22:31:43.546Z,4.22
2019-03-25T22:34:11.991Z,4.20
2019-03-25T22:36:41.701Z,4.33
2019-03-25T22:39:10.386Z,4.70
2019-03-25T22:41:38.835Z,4.85
2019-03-25T22:44:07.336Z,4.33
2019-03-25T22:46:35.866Z,5.22
2019-03-25T22:49:04.361Z,5.25
2019-03-25T22:51:33.056Z,5.55
2019-03-25T22:54:01.513Z,6.05
2019-03-25T22:56:30.206Z,6.12
2019-03-25T22:58:58.923Z,6.20
2019-03-25T23:01:27.524Z,6.10
2019-03-25T23:03:55.985Z,6.65
2019-03-25T23:06:24.425Z,7.70
2019-03-25T23:08:52.877Z,7.17
2019-03-25T23:11:21.569Z,6.12
2019-03-25T23:13:50.288Z,6.45
2019-03-25T23:16:18.982Z,6.37
2019-03-25T23:18:47.693Z,6.30
2019-03-25T23:21:16.401Z,6.58
2019-03-25T23:23:45.145Z,6.12
2019-03-25T23:26:26.005Z,5.80
2019-03-25T23:28:54.481Z,5.92
2019-03-25T23:31:22.913Z,5.50
2019-03-25T23:33:52.442Z,5.30
2019-03-25T23:36:21.549Z,5.55
2019-03-25T23:38:49.986Z,5.10
2019-03-25T23:41:18.700Z,6.00
2019-03-25T23:43:47.214Z,5.40
2019-03-25T23:46:18.601Z,5.30
2019-03-25T23:48:47.108Z,6.12
2019-03-25T23:51:15.598Z,4.92
2019-03-25T23:53:44.288Z,5.67
2019-03-25T23:56:12.994Z,5.40
2019-03-25T23:58:41.438Z,5.67
